createdAt,value
2018-05-15T00:03:41.070Z,48.60
2018-05-15T00:08:33.347Z,49.00
2018-05-15T00:13:24.813Z,48.90
2018-05-15T00:18:16.299Z,48.90
2018-05-15T00:23:08.536Z,48.80
2018-05-15T00:28:00.760Z,49.50
2018-05-15T00:32:52.265Z,49.00
2018-05-15T00:37:43.750Z,49.00
2018-05-15T00:42:35.976Z,50.40
2018-05-15T00:47:27.529Z,50.30
2018-05-15T00:52:19.025Z,52.30
2018-05-15T00:57:10.518Z,52.80
2018-05-15T01:02:03.656Z,54.30
2018-05-15T01:06:55.156Z,54.20
2018-05-15T01:11:46.623Z,55.30
2018-05-15T01:16:38.138Z,56.40
2018-05-15T01:21:29.629Z,58.40
2018-05-15T01:26:21.127Z,59.60
2018-05-15T01:31:12.608Z,60.20
2018-05-15T01:36:04.148Z,60.30
2018-05-15T01:40:55.685Z,60.70
2018-05-15T01:45:47.163Z,58.90
2018-05-15T01:50:38.671Z,58.00
2018-05-15T01:55:30.172Z,57.00
2018-05-15T02:00:21.656Z,56.60
2018-05-15T02:05:13.184Z,55.60
2018-05-15T02:10:04.681Z,55.50
2018-05-15T02:14:56.164Z,55.50
2018-05-15T02:19:47.666Z,55.90
2018-05-15T02:24:39.204Z,55.90
2018-05-15T02:29:30.739Z,55.90
2018-05-15T02:34:22.225Z,55.40
2018-05-15T02:39:13.726Z,55.40
2018-05-15T02:44:05.220Z,55.10
2018-05-15T02:48:56.691Z,55.20
2018-05-15T02:53:48.191Z,55.70
2018-05-15T02:58:39.703Z,56.30
2018-05-15T03:03:31.197Z,56.20
2018-05-15T03:08:22.709Z,56.30
2018-05-15T03:13:14.229Z,56.20
2018-05-15T03:18:05.742Z,58.20
2018-05-15T03:22:57.234Z,60.20
2018-05-15T03:27:48.736Z,61.30
2018-05-15T03:32:40.251Z,62.30
2018-05-15T03:37:31.776Z,62.90
2018-05-15T03:42:23.295Z,63.20
2018-05-15T03:47:15.642Z,65.20
2018-05-15T03:52:07.094Z,65.10
2018-05-15T03:56:58.591Z,66.80
2018-05-15T04:02:08.545Z,67.70
2018-05-15T04:07:18.546Z,68.90
2018-05-15T04:12:10.781Z,68.00
2018-05-15T04:17:03.040Z,68.10
2018-05-15T04:21:55.284Z,68.70
2018-05-15T04:26:47.541Z,68.10
2018-05-15T04:31:39.758Z,68.30
2018-05-15T04:36:32.030Z,68.30
2018-05-15T04:41:24.303Z,67.80
2018-05-15T04:46:16.548Z,66.50
2018-05-15T04:51:08.792Z,66.80
2018-05-15T04:56:01.035Z,65.90
2018-05-15T05:00:52.537Z,65.90
2018-05-15T05:05:44.037Z,65.40
2018-05-15T05:10:35.524Z,58.50
2018-05-15T05:15:27.025Z,50.20
2018-05-15T05:20:18.544Z,45.30
2018-05-15T05:25:10.110Z,41.50
2018-05-15T05:30:01.645Z,38.60
2018-05-15T05:34:53.169Z,36.90
2018-05-15T05:39:44.693Z,34.90
2018-05-15T05:44:36.272Z,32.80
2018-05-15T05:49:27.803Z,31.50
2018-05-15T05:54:19.299Z,29.80
2018-05-15T05:59:10.788Z,30.30
2018-05-15T06:04:03.054Z,27.40
2018-05-15T06:08:54.565Z,27.30
2018-05-15T06:13:46.779Z,25.40
2018-05-15T06:18:38.315Z,25.30
2018-05-15T06:23:29.822Z,24.30
2018-05-15T06:28:21.361Z,24.70
2018-05-15T06:33:12.881Z,24.80
2018-05-15T06:38:04.391Z,25.60
2018-05-15T06:42:56.600Z,29.60
2018-05-15T06:47:48.110Z,29.50
2018-05-15T06:52:39.636Z,28.10
2018-05-15T06:57:31.144Z,25.30
2018-05-15T07:02:23.458Z,23.70
2018-05-15T07:07:14.919Z,23.60
2018-05-15T07:12:06.447Z,23.60
2018-05-15T07:16:57.917Z,24.30
2018-05-15T07:21:49.390Z,27.40
2018-05-15T07:26:40.937Z,27.80
2018-05-15T07:31:32.429Z,27.20
2018-05-15T07:36:23.932Z,25.40
2018-05-15T07:41:16.173Z,23.20
2018-05-15T07:46:08.429Z,23.30
2018-05-15T07:51:00.678Z,23.60
2018-05-15T07:55:52.887Z,23.50
2018-05-15T08:00:44.405Z,23.90
2018-05-15T08:05:35.898Z,24.90
2018-05-15T08:10:28.147Z,22.70
2018-05-15T08:15:20.391Z,24.50
2018-05-15T08:20:12.632Z,24.30
2018-05-15T08:25:04.162Z,23.70
2018-05-15T08:29:55.723Z,22.20
2018-05-15T08:34:47.983Z,22.80
2018-05-15T08:39:39.496Z,22.80
2018-05-15T08:44:30.951Z,23.30
2018-05-15T08:49:23.194Z,20.50
2018-05-15T08:54:16.057Z,21.20
2018-05-15T08:59:08.327Z,21.20
2018-05-15T09:03:59.813Z,21.20
2018-05-15T09:08:51.410Z,21.40
2018-05-15T09:13:42.921Z,21.50
2018-05-15T09:18:35.169Z,22.00
2018-05-15T09:23:27.453Z,20.40
2018-05-15T09:28:18.965Z,20.40
2018-05-15T09:33:10.462Z,20.70
2018-05-15T09:38:01.973Z,21.40
2018-05-15T09:42:53.489Z,20.10
2018-05-15T09:47:45.046Z,20.30
2018-05-15T09:52:36.545Z,20.70
2018-05-15T09:57:28.031Z,20.30
2018-05-15T10:02:19.551Z,20.20
2018-05-15T10:07:11.057Z,22.20
2018-05-15T10:12:02.569Z,22.20
2018-05-15T10:16:54.845Z,24.40
2018-05-15T10:21:46.359Z,24.30
2018-05-15T10:26:37.865Z,23.40
2018-05-15T10:31:31.044Z,25.40
2018-05-15T10:36:23.275Z,25.80
2018-05-15T10:41:14.807Z,25.70
2018-05-15T10:46:08.080Z,25.20
2018-05-15T10:51:00.322Z,24.90
2018-05-15T10:55:51.841Z,25.00
2018-05-15T11:00:43.329Z,25.30
2018-05-15T11:05:35.580Z,26.00
2018-05-15T11:10:27.825Z,27.00
2018-05-15T11:15:20.416Z,26.90
2018-05-15T11:20:31.022Z,26.80
2018-05-15T11:25:22.533Z,26.20
2018-05-15T11:30:14.043Z,25.60
2018-05-15T11:35:05.543Z,25.00
2018-05-15T11:39:57.063Z,24.80
2018-05-15T11:44:48.786Z,24.80
2018-05-15T11:49:41.780Z,24.30
2018-05-15T11:54:31.828Z,25.10
2018-05-15T11:59:23.395Z,25.40
2018-05-15T12:04:14.900Z,25.70
2018-05-15T12:09:06.502Z,26.00
2018-05-15T12:13:58.742Z,24.00
2018-05-15T12:18:50.236Z,24.00
2018-05-15T12:23:41.730Z,24.20
2018-05-15T12:28:33.976Z,25.00
2018-05-15T12:33:26.289Z,25.00
2018-05-15T12:38:17.849Z,24.90
2018-05-15T12:43:09.362Z,24.70
2018-05-15T12:48:01.322Z,24.30
2018-05-15T12:52:52.883Z,23.00
2018-05-15T12:57:45.127Z,24.60
2018-05-15T13:02:37.347Z,25.00
2018-05-15T13:07:28.914Z,25.00
2018-05-15T13:12:20.404Z,25.50
2018-05-15T13:17:11.975Z,24.80
2018-05-15T13:22:03.516Z,25.90
2018-05-15T13:26:55.039Z,25.60
2018-05-15T13:31:47.296Z,24.40
2018-05-15T13:36:39.547Z,24.80
2018-05-15T13:41:31.761Z,25.60
2018-05-15T13:46:23.283Z,26.00
2018-05-15T13:51:14.779Z,26.60
2018-05-15T13:56:06.281Z,27.20
2018-05-15T14:00:57.788Z,27.00
2018-05-15T14:05:49.311Z,26.10
2018-05-15T14:10:40.803Z,26.70
2018-05-15T14:15:33.104Z,26.00
2018-05-15T14:20:24.648Z,26.00
2018-05-15T14:25:16.137Z,26.80
2018-05-15T14:30:07.698Z,27.10
2018-05-15T14:34:59.218Z,27.50
2018-05-15T14:39:50.713Z,27.60
2018-05-15T14:44:42.231Z,26.20
2018-05-15T14:49:33.725Z,25.00
2018-05-15T14:54:25.234Z,25.20
2018-05-15T14:59:16.749Z,27.30
2018-05-15T15:04:09.039Z,28.40
2018-05-15T15:09:00.534Z,28.30
2018-05-15T15:13:52.858Z,28.90
2018-05-15T15:18:44.467Z,28.80
2018-05-15T15:23:35.969Z,28.80
2018-05-15T15:28:28.246Z,27.00
2018-05-15T15:33:19.717Z,26.90
2018-05-15T15:38:11.979Z,26.60
2018-05-15T15:43:03.508Z,26.50
2018-05-15T15:47:55.106Z,27.10
2018-05-15T15:52:46.614Z,26.60
2018-05-15T15:57:38.163Z,27.30
2018-05-15T16:02:29.698Z,27.30
2018-05-15T16:07:21.207Z,27.20
2018-05-15T16:12:13.444Z,27.90
2018-05-15T16:17:05.001Z,27.90
2018-05-15T16:21:57.231Z,28.20
2018-05-15T16:26:48.794Z,28.60
2018-05-15T16:31:40.291Z,28.70
2018-05-15T16:36:31.779Z,28.80
2018-05-15T16:41:23.291Z,29.00
2018-05-15T16:46:15.548Z,29.10
2018-05-15T16:51:07.059Z,29.00
2018-05-15T16:55:59.288Z,29.20
2018-05-15T17:00:50.836Z,29.10
2018-05-15T17:05:43.096Z,29.00
2018-05-15T17:10:35.329Z,28.80
2018-05-15T17:15:26.832Z,28.80
2018-05-15T17:20:18.347Z,28.80
2018-05-15T17:25:10.705Z,28.60
2018-05-15T17:30:02.209Z,28.60
2018-05-15T17:34:54.453Z,29.20
2018-05-15T17:39:46.703Z,30.00
2018-05-15T17:44:38.979Z,30.60
2018-05-15T17:49:30.510Z,30.50
2018-05-15T17:54:22.018Z,31.00
2018-05-15T17:59:14.255Z,32.10
2018-05-15T18:04:05.776Z,32.00
2018-05-15T18:08:57.298Z,32.30
2018-05-15T18:13:48.826Z,32.00
2018-05-15T18:18:40.311Z,32.20
2018-05-15T18:23:32.553Z,32.30
2018-05-15T18:28:24.809Z,33.20
2018-05-15T18:33:17.106Z,32.80
2018-05-15T18:38:08.589Z,32.80
2018-05-15T18:43:00.099Z,33.20
2018-05-15T18:47:51.608Z,33.60
2018-05-15T18:52:43.173Z,33.90
2018-05-15T18:57:34.695Z,33.90
2018-05-15T19:02:26.209Z,34.30
2018-05-15T19:07:17.710Z,34.80
2018-05-15T19:12:09.979Z,36.20
2018-05-15T19:17:01.466Z,36.10
2018-05-15T19:21:52.972Z,36.80
2018-05-15T19:26:44.479Z,37.50
2018-05-15T19:31:36.896Z,37.80
2018-05-15T19:36:30.464Z,38.30
2018-05-15T19:41:22.012Z,38.90
2018-05-15T19:46:18.884Z,39.50
2018-05-15T19:51:11.156Z,40.40
2018-05-15T19:56:02.694Z,39.10
2018-05-15T20:00:54.223Z,40.60
2018-05-15T20:05:45.769Z,40.90
2018-05-15T20:10:37.287Z,40.90
2018-05-15T20:15:29.535Z,41.80
2018-05-15T20:20:21.855Z,42.00
2018-05-15T20:25:13.347Z,41.90
2018-05-15T20:30:04.882Z,42.70
2018-05-15T20:34:56.470Z,43.80
2018-05-15T20:39:47.910Z,44.80
2018-05-15T20:44:40.213Z,46.60
2018-05-15T20:49:31.746Z,46.60
2018-05-15T20:54:24.168Z,47.30
2018-05-15T20:59:16.421Z,48.60
2018-05-15T21:04:07.984Z,48.50
2018-05-15T21:08:59.503Z,49.00
2018-05-15T21:13:50.985Z,49.70
2018-05-15T21:18:42.470Z,50.40
2018-05-15T21:23:34.001Z,50.90
2018-05-15T21:28:25.567Z,51.70
2018-05-15T21:33:17.066Z,51.90
2018-05-15T21:38:08.593Z,52.10
2018-05-15T21:43:00.846Z,52.70
2018-05-15T21:47:52.349Z,52.60
2018-05-15T21:52:44.776Z,52.80
2018-05-15T21:57:36.392Z,53.20
2018-05-15T22:02:27.895Z,53.80
2018-05-15T22:07:20.155Z,53.80
2018-05-15T22:12:30.259Z,53.70
2018-05-15T22:17:40.314Z,53.60
2018-05-15T22:22:32.067Z,53.70
2018-05-15T22:27:23.581Z,53.20
2018-05-15T22:32:15.751Z,52.60
2018-05-15T22:37:07.266Z,51.60
2018-05-15T22:41:58.756Z,51.60
2018-05-15T22:46:50.991Z,51.50
2018-05-15T22:51:42.909Z,51.50
2018-05-15T22:56:34.409Z,51.00
2018-05-15T23:01:25.916Z,51.00
2018-05-15T23:06:17.407Z,50.70
2018-05-15T23:11:08.899Z,50.70
2018-05-15T23:16:01.117Z,50.30
2018-05-15T23:20:52.628Z,50.30
2018-05-15T23:25:44.157Z,50.90
2018-05-15T23:30:35.657Z,50.50
2018-05-15T23:35:27.178Z,50.80
2018-05-15T23:40:19.430Z,51.00
2018-05-15T23:45:11.692Z,51.20
2018-05-15T23:50:04.163Z,51.00
2018-05-15T23:54:55.667Z,51.30
2018-05-15T23:59:47.927Z,51.50
